Time;durP1;ratioP1;P1;durP2;ratioP2;P2;SDS_P1;SDS_P2;PMS_P1;PMS_P2;Temp;Humidity;BMP_temperature;BMP_pressure;BME280_temperature;BME280_humidity;BME280_pressure;Samples;Min_cycle;Max_cycle;Signal;HPM_P1;HPM_P2
2023/06/25 00:02:00;;;;;;;3.55;1.90;;;;;;;17.26;nan;96691.34;5098003;28;20230;-68
2023/06/25 00:04:27;;;;;;;2.67;1.25;;;;;;;17.16;nan;96693.56;5098781;28;20317;-69
2023/06/25 00:06:53;;;;;;;3.08;1.70;;;;;;;17.18;nan;96696.84;5098740;28;20206;-69
2023/06/25 00:09:20;;;;;;;4.82;2.00;;;;;;;17.12;nan;96688.88;5097955;28;20219;-67
2023/06/25 00:11:46;;;;;;;6.50;2.63;;;;;;;17.10;nan;96686.38;5098649;28;20222;-69
2023/06/25 00:14:13;;;;;;;4.10;2.50;;;;;;;17.19;nan;96685.16;5098667;28;20203;-69
2023/06/25 00:16:39;;;;;;;4.03;2.25;;;;;;;17.18;nan;96688.03;5098210;28;20195;-67
2023/06/25 00:19:07;;;;;;;2.90;1.73;;;;;;;17.20;nan;96681.47;5097893;28;20218;-67
2023/06/25 00:21:34;;;;;;;8.85;1.90;;;;;;;16.65;nan;96678.41;5098322;28;20218;-69
2023/06/25 00:24:00;;;;;;;2.60;1.48;;;;;;;16.57;nan;96685.75;5098597;28;20199;-67
2023/06/25 00:26:27;;;;;;;3.67;1.90;;;;;;;16.48;nan;96682.50;5098188;28;20211;-69
2023/06/25 00:28:54;;;;;;;3.88;2.03;;;;;;;16.72;nan;96681.88;5097429;28;20233;-67
2023/06/25 00:31:21;;;;;;;3.60;2.55;;;;;;;16.64;nan;96681.28;5098299;28;20198;-70
2023/06/25 00:33:49;;;;;;;2.92;1.90;;;;;;;16.73;nan;96680.88;5098270;28;20213;-69
2023/06/25 00:36:17;;;;;;;4.32;1.65;;;;;;;16.59;nan;96678.41;5098116;28;20206;-67
2023/06/25 00:38:44;;;;;;;5.00;2.08;;;;;;;16.32;nan;96683.88;5097614;28;20203;-70
2023/06/25 00:41:11;;;;;;;1.45;1.27;;;;;;;16.60;nan;96678.19;5097199;28;21025;-69
2023/06/25 00:43:41;;;;;;;13.52;1.90;;;;;;;16.65;nan;96675.75;5097791;28;20214;-70
2023/06/25 00:46:12;;;;;;;4.18;1.60;;;;;;;16.62;nan;96673.50;5098449;28;21126;-70
2023/06/25 00:48:38;;;;;;;4.40;2.33;;;;;;;16.35;nan;96680.84;5096806;28;20223;-70
2023/06/25 00:51:05;;;;;;;3.70;1.95;;;;;;;16.55;nan;96679.84;5097715;28;20202;-67
2023/06/25 00:53:35;;;;;;;2.60;1.42;;;;;;;16.57;nan;96667.13;5098205;28;20215;-69
2023/06/25 00:56:01;;;;;;;3.72;2.05;;;;;;;16.58;nan;96671.44;5097660;28;20195;-68
2023/06/25 00:58:28;;;;;;;5.57;2.35;;;;;;;16.42;nan;96666.53;5096710;28;20207;-72
2023/06/25 01:00:59;;;;;;;3.95;2.35;;;;;;;16.50;nan;96664.47;5097604;28;20199;-67
2023/06/25 01:03:31;;;;;;;5.97;2.00;;;;;;;16.55;nan;96670.00;5097622;28;20564;-69
2023/06/25 01:06:04;;;;;;;3.17;2.35;;;;;;;16.65;nan;96661.63;5097336;28;20210;-70
2023/06/25 01:08:36;;;;;;;3.67;2.00;;;;;;;16.58;nan;96664.25;5097073;28;20227;-67
2023/06/25 01:11:03;;;;;;;7.32;2.80;;;;;;;16.49;nan;96664.69;5097463;28;20613;-69
2023/06/25 01:13:30;;;;;;;4.40;2.22;;;;;;;16.37;nan;96661.00;5096963;28;20226;-68
2023/06/25 01:15:57;;;;;;;4.97;2.58;;;;;;;16.40;nan;96665.09;5097437;28;20605;-69
2023/06/25 01:18:23;;;;;;;2.72;2.08;;;;;;;16.41;nan;96664.88;5096748;28;21120;-71
2023/06/25 01:20:52;;;;;;;5.28;2.33;;;;;;;16.41;nan;96662.22;5096972;28;20231;-68
2023/06/25 01:23:21;;;;;;;3.55;2.03;;;;;;;16.53;nan;96652.59;5097176;28;20251;-70
2023/06/25 01:25:48;;;;;;;4.22;2.20;;;;;;;16.52;nan;96653.63;5097350;28;20200;-71
2023/06/25 01:28:19;;;;;;;3.60;2.20;;;;;;;16.50;nan;96651.16;5096241;28;20704;-69
2023/06/25 01:30:47;;;;;;;4.97;2.42;;;;;;;16.64;nan;96655.47;5096828;28;20203;-67
2023/06/25 01:33:15;;;;;;;3.47;2.28;;;;;;;16.58;nan;96648.31;5096951;28;21321;-70
2023/06/25 01:35:42;;;;;;;2.55;1.55;;;;;;;16.42;nan;96647.06;5096922;28;20195;-70
2023/06/25 01:38:08;;;;;;;4.05;2.20;;;;;;;16.48;nan;96652.41;5096606;28;20199;-68
2023/06/25 01:40:36;;;;;;;5.15;2.40;;;;;;;16.52;nan;96649.13;5096965;28;20264;-68
2023/06/25 01:43:02;;;;;;;3.78;1.77;;;;;;;16.44;nan;96645.84;5096504;28;20219;-70
2023/06/25 01:45:29;;;;;;;4.78;2.65;;;;;;;16.25;nan;96638.63;5097134;28;20207;-70
2023/06/25 01:47:55;;;;;;;2.15;1.60;;;;;;;16.36;nan;96637.25;5096207;28;20223;-67
2023/06/25 01:50:22;;;;;;;3.17;2.10;;;;;;;16.39;nan;96637.66;5096370;28;20195;-69
2023/06/25 01:52:48;;;;;;;5.50;2.58;;;;;;;16.47;nan;96634.81;5097086;28;20312;-68
2023/06/25 01:55:15;;;;;;;2.58;1.60;;;;;;;16.28;nan;96630.28;5097237;28;20207;-71
2023/06/25 01:57:43;;;;;;;4.32;2.35;;;;;;;16.33;nan;96635.81;5096420;28;20203;-71
2023/06/25 02:00:11;;;;;;;4.85;2.58;;;;;;;16.23;nan;96632.69;5096713;28;20343;-70
2023/06/25 02:02:37;;;;;;;4.13;2.00;;;;;;;15.97;nan;96635.31;5096925;28;20675;-68
2023/06/25 02:05:05;;;;;;;3.97;2.28;;;;;;;15.90;nan;96631.78;5097266;28;20203;-70
2023/06/25 02:07:31;;;;;;;3.80;2.35;;;;;;;15.91;nan;96638.75;5096472;28;20199;-68
2023/06/25 02:09:58;;;;;;;3.53;2.33;;;;;;;15.97;nan;96630.00;5096639;28;20878;-70
2023/06/25 02:12:24;;;;;;;4.95;2.63;;;;;;;16.00;nan;96620.78;5096719;28;20215;-68
2023/06/25 02:14:52;;;;;;;5.07;2.65;;;;;;;16.08;nan;96621.41;5097823;28;20215;-68
2023/06/25 02:17:18;;;;;;;5.55;3.00;;;;;;;16.02;nan;96622.19;5100360;28;20203;-67
2023/06/25 02:19:45;;;;;;;6.47;3.05;;;;;;;15.98;nan;96626.28;5100585;28;20896;-70
2023/06/25 02:22:11;;;;;;;4.63;2.25;;;;;;;15.92;nan;96629.78;5100665;28;20221;-67
2023/06/25 02:24:38;;;;;;;4.05;2.33;;;;;;;15.94;nan;96617.06;5100837;28;20203;-69
2023/06/25 02:27:05;;;;;;;8.25;3.05;;;;;;;16.06;nan;96617.31;5100360;28;20246;-68
2023/06/25 02:29:31;;;;;;;3.85;1.63;;;;;;;15.97;nan;96614.03;5099862;28;20223;-68
2023/06/25 02:31:59;;;;;;;3.80;2.50;;;;;;;15.89;nan;96613.38;5097869;28;20739;-69
2023/06/25 02:34:26;;;;;;;5.68;2.03;;;;;;;15.69;nan;96612.50;5100325;28;20205;-66
2023/06/25 02:36:52;;;;;;;4.60;2.15;;;;;;;15.72;nan;96605.97;5100423;28;20195;-66
2023/06/25 02:39:19;;;;;;;5.05;2.97;;;;;;;15.91;nan;96604.19;5100029;28;20191;-69
2023/06/25 02:41:45;;;;;;;5.55;3.00;;;;;;;15.95;nan;96613.41;5100350;28;20215;-69
2023/06/25 02:44:12;;;;;;;6.38;3.10;;;;;;;16.00;nan;96603.00;5100211;28;20199;-69
2023/06/25 02:46:38;;;;;;;5.80;3.35;;;;;;;15.76;nan;96607.19;5100290;27;20200;-67
2023/06/25 02:49:06;;;;;;;4.80;3.08;;;;;;;15.84;nan;96615.03;5099258;28;20215;-67
2023/06/25 02:54:09;;;;;;;6.32;3.15;;;;;;;15.74;98.58;96615.38;5054278;27;20559;-68
2023/06/25 02:56:36;;;;;;;6.45;3.05;;;;;;;15.55;99.20;96610.81;5053583;28;20211;-65
2023/06/25 02:59:02;;;;;;;6.07;2.72;;;;;;;15.59;99.46;96611.25;5053418;28;20208;-68
2023/06/25 03:01:29;;;;;;;4.90;2.30;;;;;;;15.52;100.00;96618.38;5053848;28;20200;-67
2023/06/25 03:03:56;;;;;;;5.13;3.17;;;;;;;15.61;99.54;96610.03;5053132;28;20220;-68
2023/06/25 03:06:22;;;;;;;4.72;3.22;;;;;;;15.58;100.00;96609.59;5054057;28;20614;-69
2023/06/25 03:08:49;;;;;;;4.97;2.80;;;;;;;15.61;100.00;96606.56;5052948;28;20200;-67
2023/06/25 03:11:16;;;;;;;3.72;2.15;;;;;;;15.79;99.18;96612.13;5053100;28;20216;-68
2023/06/25 03:13:43;;;;;;;5.25;3.25;;;;;;;15.67;100.00;96613.72;5053432;28;20196;-66
2023/06/25 03:16:09;;;;;;;7.88;2.53;;;;;;;15.73;99.92;96612.94;5054109;28;20204;-67
2023/06/25 03:18:36;;;;;;;4.95;2.08;;;;;;;15.66;98.30;96612.09;5052721;28;20752;-66
2023/06/25 03:21:03;;;;;;;5.95;2.50;;;;;;;15.51;98.42;96612.22;5053428;28;20210;-66
2023/06/25 03:23:29;;;;;;;2.97;1.98;;;;;;;15.52;99.12;96603.25;5052772;28;20274;-68
2023/06/25 03:25:55;;;;;;;6.80;3.30;;;;;;;15.52;100.00;96610.41;5053582;28;20205;-68
2023/06/25 03:28:23;;;;;;;5.47;2.72;;;;;;;15.59;100.00;96601.44;5052657;28;20728;-68
2023/06/25 03:30:50;;;;;;;5.07;2.75;;;;;;;15.52;100.00;96600.59;5052473;28;20200;-66
2023/06/25 03:33:16;;;;;;;4.55;2.15;;;;;;;15.55;100.00;96596.72;5052331;28;20221;-67
2023/06/25 03:35:43;;;;;;;5.60;2.70;;;;;;;15.67;99.69;96598.63;5052886;28;20847;-66
2023/06/25 03:38:10;;;;;;;9.38;2.90;;;;;;;15.74;97.41;96590.66;5052251;28;20204;-67
2023/06/25 03:40:38;;;;;;;4.35;2.35;;;;;;;15.66;96.71;96590.84;5052598;28;20201;-67
2023/06/25 03:43:04;;;;;;;6.75;3.33;;;;;;;15.35;99.64;96603.78;5052327;28;20268;-67
2023/06/25 03:45:32;;;;;;;9.38;3.55;;;;;;;15.30;100.00;96596.41;5052839;28;20216;-66
2023/06/25 03:47:58;;;;;;;4.68;2.45;;;;;;;15.30;100.00;96590.28;5052581;28;20231;-68
2023/06/25 03:50:25;;;;;;;8.18;2.58;;;;;;;15.34;100.00;96587.03;5052879;28;20223;-69
2023/06/25 03:52:51;;;;;;;4.55;2.75;;;;;;;15.48;100.00;96588.72;5052469;28;20232;-67
2023/06/25 03:55:18;;;;;;;7.13;2.60;;;;;;;15.39;100.00;96589.09;5052528;28;20212;-69
2023/06/25 03:57:44;;;;;;;3.58;2.65;;;;;;;15.44;100.00;96591.97;5052223;28;20201;-69
2023/06/25 04:00:12;;;;;;;5.38;2.47;;;;;;;15.30;100.00;96591.09;5052828;28;20212;-66
2023/06/25 04:02:39;;;;;;;6.45;2.70;;;;;;;15.21;100.00;96599.44;5051651;28;20228;-68
2023/06/25 04:05:06;;;;;;;4.50;2.58;;;;;;;15.19;100.00;96585.50;5041596;28;20205;-66
2023/06/25 04:07:33;;;;;;;7.25;3.50;;;;;;;15.37;100.00;96585.81;5038608;28;20228;-67
2023/06/25 04:09:59;;;;;;;5.22;2.65;;;;;;;15.50;100.00;96578.75;5039031;28;20216;-67
2023/06/25 04:12:25;;;;;;;6.50;2.85;;;;;;;15.61;100.00;96583.47;5039290;28;20221;-67
2023/06/25 04:14:52;;;;;;;3.88;3.00;;;;;;;15.81;100.00;96576.38;5039080;28;20216;-68
2023/06/25 04:17:19;;;;;;;6.13;2.83;;;;;;;15.80;100.00;96579.25;5038638;28;20208;-68
2023/06/25 04:19:46;;;;;;;5.53;3.08;;;;;;;16.02;100.00;96581.53;5038792;28;20658;-68
2023/06/25 04:22:13;;;;;;;5.18;3.03;;;;;;;16.00;100.00;96578.25;5039317;28;20239;-67
2023/06/25 04:24:40;;;;;;;7.10;3.15;;;;;;;16.01;100.00;96579.88;5038660;28;20201;-65
2023/06/25 04:27:07;;;;;;;7.00;3.53;;;;;;;16.15;100.00;96582.38;5038915;28;20207;-66
2023/06/25 04:29:33;;;;;;;3.75;2.55;;;;;;;16.10;100.00;96581.31;5038155;28;20205;-65
2023/06/25 04:32:00;;;;;;;5.13;3.03;;;;;;;16.11;100.00;96580.31;5039082;28;20225;-68
2023/06/25 04:34:27;;;;;;;3.42;2.13;;;;;;;16.11;100.00;96575.78;5038493;28;20212;-67
2023/06/25 04:36:55;;;;;;;4.15;2.50;;;;;;;16.36;100.00;96584.06;5038619;28;20205;-68
2023/06/25 04:39:21;;;;;;;4.00;2.42;;;;;;;16.21;100.00;96580.72;5038553;28;20212;-67
2023/06/25 04:41:47;;;;;;;4.65;2.67;;;;;;;16.27;100.00;96575.44;5037744;28;20246;-65
2023/06/25 04:44:14;;;;;;;3.35;2.33;;;;;;;16.38;100.00;96584.66;5038580;28;20696;-65
2023/06/25 04:46:40;;;;;;;3.38;1.90;;;;;;;16.53;100.00;96581.59;5038274;28;20541;-68
2023/06/25 04:49:07;;;;;;;4.25;1.90;;;;;;;16.65;100.00;96581.81;5038236;28;20231;-65
2023/06/25 04:51:34;;;;;;;8.80;2.97;;;;;;;16.72;100.00;96578.09;5038357;28;20212;-66
2023/06/25 04:54:02;;;;;;;4.43;2.83;;;;;;;16.94;100.00;96573.34;5037659;28;20606;-68
2023/06/25 04:56:28;;;;;;;6.57;3.28;;;;;;;16.90;100.00;96583.59;5038221;28;20197;-69
2023/06/25 04:58:55;;;;;;;5.85;2.90;;;;;;;16.93;100.00;96587.69;5037466;28;21327;-67
2023/06/25 05:01:23;;;;;;;6.43;2.65;;;;;;;17.15;99.61;96584.59;5038311;28;20212;-68
2023/06/25 05:03:49;;;;;;;6.30;2.47;;;;;;;17.15;100.00;96579.25;5037867;28;20227;-67
2023/06/25 05:06:16;;;;;;;6.57;2.85;;;;;;;17.30;100.00;96586.00;5038024;28;20212;-67
2023/06/25 05:08:42;;;;;;;6.75;2.67;;;;;;;17.47;99.37;96581.84;5037272;28;20205;-65
2023/06/25 05:11:10;;;;;;;4.95;3.08;;;;;;;17.59;98.55;96587.31;5040015;28;20208;-67
2023/06/25 05:13:36;;;;;;;8.07;3.97;;;;;;;17.70;96.84;96576.81;5038362;28;20220;-67
2023/06/25 05:16:03;;;;;;;5.75;3.22;;;;;;;17.93;95.79;96575.25;5038128;28;20212;-67
2023/06/25 05:18:30;;;;;;;4.35;2.30;;;;;;;18.17;94.85;96568.34;5038916;28;20204;-67
2023/06/25 05:20:56;;;;;;;4.30;2.13;;;;;;;18.43;92.90;96569.00;5038379;28;20205;-67
2023/06/25 05:23:25;;;;;;;5.55;2.67;;;;;;;18.58;91.60;96573.00;5038619;28;20244;-66
2023/06/25 05:25:51;;;;;;;6.78;2.33;;;;;;;18.88;89.49;96573.94;5038395;28;20201;-67
2023/06/25 05:28:19;;;;;;;4.88;2.60;;;;;;;19.18;86.47;96564.22;5037300;28;20204;-67
2023/06/25 05:30:45;;;;;;;4.15;2.65;;;;;;;19.21;85.33;96569.13;5037835;28;20556;-67
2023/06/25 05:33:12;;;;;;;4.18;2.00;;;;;;;18.92;81.25;96569.78;5037745;28;20972;-67
2023/06/25 05:35:38;;;;;;;7.07;2.58;;;;;;;18.97;81.81;96573.44;5038221;28;20198;-68
2023/06/25 05:38:05;;;;;;;5.93;2.00;;;;;;;18.92;79.65;96575.13;5037491;28;20201;-67
2023/06/25 05:40:31;;;;;;;6.20;2.47;;;;;;;18.92;81.17;96569.78;5037912;28;20197;-67
2023/06/25 05:42:57;;;;;;;6.38;2.15;;;;;;;19.13;81.23;96572.06;5036978;28;20233;-67
2023/06/25 05:45:25;;;;;;;4.30;1.92;;;;;;;19.48;81.20;96570.47;5038081;28;20210;-67
2023/06/25 05:47:52;;;;;;;4.35;2.45;;;;;;;19.43;79.88;96562.31;5037641;28;20827;-68
2023/06/25 05:50:18;;;;;;;3.95;2.33;;;;;;;19.70;81.10;96575.09;5037354;28;20201;-67
2023/06/25 05:52:45;;;;;;;5.50;2.08;;;;;;;19.96;80.24;96564.94;5037314;28;20236;-67
2023/06/25 05:55:11;;;;;;;5.93;2.28;;;;;;;20.20;79.36;96564.78;5038353;28;20209;-67
2023/06/25 05:57:38;;;;;;;5.03;2.55;;;;;;;20.31;77.93;96560.50;5036323;28;20303;-67
2023/06/25 06:00:06;;;;;;;6.35;2.47;;;;;;;20.12;77.63;96563.47;5036970;28;20585;-67
2023/06/25 06:02:33;;;;;;;6.03;2.70;;;;;;;20.00;76.39;96566.09;5034177;28;20255;-67
2023/06/25 06:05:00;;;;;;;5.85;2.50;;;;;;;19.76;75.77;96558.97;5035703;28;20224;-68
2023/06/25 06:07:26;;;;;;;3.67;1.95;;;;;;;19.94;78.04;96561.66;5035626;28;20194;-67
2023/06/25 06:09:53;;;;;;;5.95;2.50;;;;;;;19.97;76.72;96566.56;5036710;28;20221;-67
2023/06/25 06:12:19;;;;;;;4.40;2.33;;;;;;;20.10;78.10;96569.03;5036381;28;20232;-67
2023/06/25 06:14:46;;;;;;;8.02;2.97;;;;;;;20.08;77.55;96573.78;5036087;28;20208;-67
2023/06/25 06:17:12;;;;;;;5.78;2.80;;;;;;;20.16;73.47;96565.44;5034775;28;20581;-69
2023/06/25 06:19:40;;;;;;;6.78;2.65;;;;;;;20.39;74.67;96568.19;5036108;28;20197;-68
2023/06/25 06:22:07;;;;;;;5.20;2.17;;;;;;;20.64;76.91;96568.84;5035115;28;20229;-68
2023/06/25 06:24:33;;;;;;;4.88;2.70;;;;;;;20.74;76.35;96567.25;5036147;28;20232;-68
2023/06/25 06:27:00;;;;;;;4.90;2.42;;;;;;;20.81;76.36;96567.13;5036241;28;20221;-67
2023/06/25 06:29:26;;;;;;;4.60;2.33;;;;;;;20.88;75.35;96571.31;5035193;28;20201;-67
2023/06/25 06:31:53;;;;;;;5.57;2.72;;;;;;;20.93;76.73;96569.56;5036435;28;21081;-67
2023/06/25 06:34:19;;;;;;;6.15;2.63;;;;;;;20.86;74.98;96566.22;5037072;28;20197;-68
2023/06/25 06:36:47;;;;;;;3.60;2.40;;;;;;;20.95;75.21;96570.16;5036588;28;20201;-68
2023/06/25 06:39:14;;;;;;;9.32;2.50;;;;;;;21.12;75.44;96568.41;5033905;28;20213;-68
2023/06/25 06:41:41;;;;;;;4.18;2.58;;;;;;;21.17;74.23;96565.84;5035486;28;20220;-70
2023/06/25 06:44:12;;;;;;;8.63;2.50;;;;;;;21.30;74.92;96565.59;5035860;28;20240;-69
2023/06/25 06:46:39;;;;;;;6.80;2.00;;;;;;;21.26;74.35;96567.13;5036387;28;20201;-69
2023/06/25 06:49:05;;;;;;;5.10;2.65;;;;;;;21.30;75.21;96568.28;5036293;28;20213;-69
2023/06/25 06:51:32;;;;;;;3.92;2.00;;;;;;;21.32;73.01;96568.03;5035091;28;20201;-70
2023/06/25 06:54:00;;;;;;;4.88;2.05;;;;;;;21.52;74.91;96574.69;5034191;28;20209;-70
2023/06/25 06:56:26;;;;;;;5.10;3.00;;;;;;;21.36;75.06;96572.72;5035365;28;20226;-69
2023/06/25 06:58:53;;;;;;;5.53;2.92;;;;;;;21.62;73.76;96569.53;5035637;28;20654;-69
2023/06/25 07:01:19;;;;;;;3.53;2.25;;;;;;;21.71;71.46;96570.78;5035356;28;20206;-70
2023/06/25 07:03:45;;;;;;;5.45;2.53;;;;;;;21.80;73.17;96566.69;5035275;28;20701;-69
2023/06/25 07:06:12;;;;;;;5.43;2.83;;;;;;;21.73;69.99;96566.00;5036596;28;20201;-70
2023/06/25 07:08:38;;;;;;;6.82;2.85;;;;;;;21.59;70.14;96564.66;5034939;28;21119;-70
2023/06/25 07:11:06;;;;;;;4.32;2.40;;;;;;;21.85;70.12;96566.78;5035798;28;20216;-69
2023/06/25 07:13:33;;;;;;;3.75;2.05;;;;;;;21.76;71.49;96566.34;5035918;28;20220;-69
2023/06/25 07:15:59;;;;;;;3.95;2.47;;;;;;;21.94;71.67;96562.66;5034517;28;20209;-70
2023/06/25 07:18:26;;;;;;;4.38;2.53;;;;;;;22.13;69.24;96565.75;5034717;28;20577;-70
2023/06/25 07:20:53;;;;;;;5.55;3.00;;;;;;;22.25;71.50;96561.13;5034515;28;20201;-69
2023/06/25 07:23:19;;;;;;;5.28;2.38;;;;;;;22.22;74.03;96556.25;5035440;28;20220;-69
2023/06/25 07:25:46;;;;;;;5.32;2.78;;;;;;;22.46;71.12;96556.97;5033913;28;20937;-68
2023/06/25 07:28:13;;;;;;;9.25;3.63;;;;;;;22.56;70.06;96563.31;5033859;28;20216;-68
2023/06/25 07:30:40;;;;;;;6.15;2.17;;;;;;;22.65;69.25;96563.72;5034584;28;20292;-71
2023/06/25 07:33:06;;;;;;;7.57;3.28;;;;;;;22.69;69.20;96563.81;5035233;28;20228;-69
2023/06/25 07:35:33;;;;;;;6.32;3.30;;;;;;;22.74;70.07;96568.44;5035892;28;20193;-69
2023/06/25 07:37:59;;;;;;;3.38;2.08;;;;;;;22.87;68.75;96568.13;5035226;28;20237;-68
2023/06/25 07:40:26;;;;;;;3.83;2.03;;;;;;;22.93;68.95;96559.88;5037557;28;20202;-68
2023/06/25 07:42:52;;;;;;;5.63;2.95;;;;;;;22.89;69.62;96558.75;5038447;28;20710;-68
2023/06/25 07:45:20;;;;;;;3.72;2.25;;;;;;;23.07;67.88;96555.03;5039175;28;20308;-68
2023/06/25 07:47:46;;;;;;;4.82;2.38;;;;;;;22.80;65.81;96556.72;5038710;28;20205;-68
2023/06/25 07:50:13;;;;;;;5.68;2.47;;;;;;;23.02;67.63;96549.56;5039152;28;20216;-69
2023/06/25 07:52:39;;;;;;;6.10;3.08;;;;;;;23.08;66.63;96559.34;5038857;28;20236;-68
2023/06/25 07:55:07;;;;;;;7.43;2.50;;;;;;;23.15;66.16;96543.84;5039048;28;20205;-68
2023/06/25 07:57:33;;;;;;;8.23;2.58;;;;;;;23.31;67.98;96552.69;5037473;28;20208;-68
2023/06/25 08:00:00;;;;;;;4.93;2.22;;;;;;;23.53;66.57;96553.53;5038536;28;20209;-68
2023/06/25 08:02:27;;;;;;;4.93;2.42;;;;;;;23.70;63.69;96556.19;5038174;28;20221;-68
2023/06/25 08:04:56;;;;;;;4.22;2.20;;;;;;;23.65;65.03;96556.09;5038056;28;20233;-68
2023/06/25 08:07:22;;;;;;;8.15;3.00;;;;;;;23.49;62.57;96557.78;5038129;28;20198;-68
2023/06/25 08:09:49;;;;;;;5.13;2.40;;;;;;;23.76;62.67;96553.31;5039024;28;20208;-67
2023/06/25 08:12:16;;;;;;;4.63;2.40;;;;;;;23.96;64.62;96550.88;5038163;28;20917;-68
2023/06/25 08:14:42;;;;;;;4.00;2.30;;;;;;;23.85;62.85;96551.81;5038717;28;20209;-67
2023/06/25 08:17:09;;;;;;;4.43;2.17;;;;;;;23.72;61.05;96543.31;5040168;28;20205;-68
2023/06/25 08:19:37;;;;;;;7.68;2.65;;;;;;;23.96;60.65;96540.09;5037522;28;20206;-69
2023/06/25 08:22:04;;;;;;;6.20;2.72;;;;;;;23.84;60.62;96546.66;5037888;28;21000;-68
2023/06/25 08:24:30;;;;;;;5.25;2.47;;;;;;;24.06;61.33;96549.09;5038254;28;20320;-69
2023/06/25 08:26:56;;;;;;;5.32;2.47;;;;;;;24.20;63.96;96542.25;5038171;28;20211;-68
2023/06/25 08:29:23;;;;;;;3.50;1.75;;;;;;;24.15;59.65;96538.69;5036742;28;20198;-68
2023/06/25 08:31:49;;;;;;;5.80;2.22;;;;;;;24.19;58.80;96532.53;5038118;28;20232;-69
2023/06/25 08:34:16;;;;;;;7.07;2.38;;;;;;;24.24;57.83;96542.56;5038179;28;20205;-68
2023/06/25 08:36:44;;;;;;;5.03;2.72;;;;;;;24.33;57.46;96541.03;5037949;28;20575;-68
2023/06/25 08:39:11;;;;;;;10.90;2.97;;;;;;;24.44;60.48;96534.69;5037046;28;20582;-69
2023/06/25 08:41:37;;;;;;;6.20;2.85;;;;;;;24.63;60.41;96544.81;5037356;28;20720;-68
2023/06/25 08:44:04;;;;;;;5.35;2.70;;;;;;;24.54;59.61;96540.16;5036734;28;20764;-70
2023/06/25 08:46:33;;;;;;;5.07;2.35;;;;;;;24.87;60.20;96538.84;5037322;28;20214;-69
2023/06/25 08:49:03;;;;;;;7.40;2.55;;;;;;;24.99;60.21;96542.16;5036962;28;20208;-68
2023/06/25 08:51:30;;;;;;;4.28;2.67;;;;;;;24.77;56.12;96532.53;5037551;28;20197;-69
2023/06/25 08:53:58;;;;;;;5.93;2.60;;;;;;;24.78;56.95;96526.91;5036604;28;20582;-68
2023/06/25 08:56:25;;;;;;;4.93;2.42;;;;;;;24.86;55.91;96526.44;5038296;28;20224;-69
2023/06/25 08:58:51;;;;;;;7.30;2.47;;;;;;;25.13;57.71;96531.75;5037669;28;20216;-69
2023/06/25 09:01:18;;;;;;;6.85;2.22;;;;;;;25.12;57.48;96541.75;5037635;28;20209;-67
2023/06/25 09:03:44;;;;;;;4.55;2.25;;;;;;;25.29;55.66;96537.81;5037606;28;20216;-66
2023/06/25 09:06:15;;;;;;;6.15;2.15;;;;;;;25.57;54.80;96532.03;5038283;28;20205;-68
2023/06/25 09:08:43;;;;;;;8.27;2.88;;;;;;;25.44;52.45;96531.69;5036837;28;20201;-66
2023/06/25 09:11:11;;;;;;;8.30;3.35;;;;;;;25.46;52.33;96526.84;5037408;28;20286;-68
2023/06/25 09:13:39;;;;;;;3.35;2.05;;;;;;;25.46;51.79;96526.84;5036607;28;20276;-66
2023/06/25 09:16:08;;;;;;;3.85;2.08;;;;;;;25.80;53.27;96525.41;5037965;28;20271;-68
2023/06/25 09:18:34;;;;;;;4.60;2.15;;;;;;;25.89;53.30;96528.13;5037295;28;20205;-69
2023/06/25 09:21:02;;;;;;;4.72;2.40;;;;;;;25.99;51.54;96517.38;5037369;28;20201;-69
2023/06/25 09:23:29;;;;;;;5.68;2.13;;;;;;;26.08;49.43;96523.88;5037188;28;20630;-68
2023/06/25 09:25:55;;;;;;;4.72;2.20;;;;;;;26.09;49.59;96520.06;5036420;28;20221;-68
2023/06/25 09:28:24;;;;;;;4.22;2.25;;;;;;;26.47;44.43;96520.44;5037387;28;20205;-70
2023/06/25 09:30:55;;;;;;;4.90;2.22;;;;;;;26.39;46.89;96522.88;5037105;28;20212;-69
2023/06/25 09:33:22;;;;;;;4.38;2.08;;;;;;;26.51;48.10;96520.72;5037044;28;20225;-67
2023/06/25 09:35:48;;;;;;;5.32;2.00;;;;;;;26.49;46.09;96517.50;5037437;28;20846;-66
2023/06/25 09:38:16;;;;;;;5.57;2.15;;;;;;;26.49;47.23;96517.50;5036916;28;20201;-66
2023/06/25 09:40:43;;;;;;;3.65;1.95;;;;;;;26.33;42.88;96515.81;5036033;28;20193;-66
2023/06/25 09:43:10;;;;;;;5.78;2.78;;;;;;;26.55;47.00;96511.00;5035785;28;20724;-69
2023/06/25 09:45:38;;;;;;;4.50;1.75;;;;;;;26.39;43.08;96506.66;5036297;28;20232;-66
2023/06/25 09:48:09;;;;;;;3.38;1.85;;;;;;;26.50;46.40;96509.09;5035590;28;20699;-68
2023/06/25 09:50:40;;;;;;;4.82;2.15;;;;;;;26.60;44.59;96509.13;5035991;28;20202;-68
2023/06/25 09:53:08;;;;;;;5.72;2.50;;;;;;;26.65;43.47;96511.00;5037043;28;20237;-69
2023/06/25 09:55:36;;;;;;;4.07;2.05;;;;;;;26.51;43.91;96516.16;5037186;28;20204;-69
2023/06/25 09:58:05;;;;;;;3.80;2.20;;;;;;;26.63;42.81;96513.19;5036463;28;20574;-66
2023/06/25 10:00:33;;;;;;;5.00;1.75;;;;;;;26.71;44.51;96509.94;5036915;28;20205;-68
2023/06/25 10:03:02;;;;;;;4.55;2.13;;;;;;;26.81;44.98;96504.53;5034779;28;20619;-67
2023/06/25 10:05:29;;;;;;;4.15;2.20;;;;;;;26.85;45.81;96502.91;5036549;28;20217;-67
2023/06/25 10:07:55;;;;;;;3.97;2.05;;;;;;;27.08;45.18;96506.66;5034864;28;20201;-69
2023/06/25 10:10:22;;;;;;;3.72;2.15;;;;;;;26.85;44.48;96501.00;5035511;28;20220;-68
2023/06/25 10:12:50;;;;;;;3.50;1.73;;;;;;;27.33;43.15;96495.78;5035043;28;20223;-68
2023/06/25 10:15:27;;;;;;;5.55;2.15;;;;;;;27.49;41.50;96494.66;5036283;28;20215;-67
2023/06/25 10:17:54;;;;;;;6.93;2.30;;;;;;;27.24;39.43;96497.44;5035009;28;20563;-67
2023/06/25 10:20:28;;;;;;;3.67;2.03;;;;;;;27.48;39.77;96490.34;5035737;28;20204;-67
2023/06/25 10:23:09;;;;;;;4.90;1.95;;;;;;;27.67;41.56;96485.16;5036185;28;20735;-68
2023/06/25 10:25:37;;;;;;;3.35;1.98;;;;;;;27.27;39.43;96486.06;5035989;28;20232;-67
2023/06/25 10:28:05;;;;;;;3.65;1.83;;;;;;;27.49;40.07;96485.72;5035800;28;20595;-66
2023/06/25 10:30:37;;;;;;;3.83;2.08;;;;;;;27.40;39.43;96490.88;5036377;28;20251;-68
2023/06/25 10:33:05;;;;;;;5.55;2.13;;;;;;;27.42;40.92;96491.44;5035543;28;20225;-67
2023/06/25 10:35:40;;;;;;;4.75;2.08;;;;;;;27.70;39.66;96488.91;5036625;28;20205;-67
2023/06/25 10:38:07;;;;;;;3.83;2.08;;;;;;;27.46;38.48;96481.69;5036177;28;20208;-66
2023/06/25 10:40:34;;;;;;;3.83;2.03;;;;;;;27.71;38.95;96481.59;5036078;28;20206;-67
2023/06/25 10:43:01;;;;;;;5.97;2.10;;;;;;;27.84;43.29;96468.28;5035972;28;20614;-68
2023/06/25 10:45:27;;;;;;;5.18;2.15;;;;;;;27.50;39.76;96468.41;5036682;28;20235;-67
2023/06/25 10:48:05;;;;;;;4.90;2.03;;;;;;;27.81;42.43;96473.44;5035567;28;20205;-65
2023/06/25 10:50:32;;;;;;;5.80;2.33;;;;;;;27.75;42.38;96471.84;5036193;28;20228;-68
2023/06/25 10:53:00;;;;;;;11.13;3.33;;;;;;;28.33;42.93;96471.00;5035850;28;20233;-68
2023/06/25 10:55:27;;;;;;;5.85;2.65;;;;;;;28.48;39.57;96463.56;5034526;28;20206;-67
2023/06/25 10:57:54;;;;;;;5.30;2.83;;;;;;;28.56;39.02;96461.03;5034635;28;20227;-67
2023/06/25 11:00:23;;;;;;;6.35;2.78;;;;;;;29.29;41.50;96455.19;5035670;28;20831;-68
2023/06/25 11:02:51;;;;;;;5.18;2.42;;;;;;;29.59;40.43;96455.69;5035865;28;20224;-66
2023/06/25 11:05:17;;;;;;;4.43;2.05;;;;;;;29.89;40.66;96455.31;5034176;28;21103;-68
2023/06/25 11:07:44;;;;;;;2.80;1.80;;;;;;;29.45;40.36;96453.16;5035372;28;20201;-68
2023/06/25 11:10:13;;;;;;;5.70;2.63;;;;;;;29.74;39.32;96455.47;5036238;28;20220;-66
2023/06/25 11:12:39;;;;;;;9.32;2.38;;;;;;;29.29;38.05;96449.78;5035914;28;20585;-68
2023/06/25 11:15:07;;;;;;;6.47;2.75;;;;;;;29.03;39.62;96453.03;5038773;28;20208;-67
2023/06/25 11:17:33;;;;;;;5.07;2.30;;;;;;;29.01;39.45;96453.31;5039361;28;21050;-67
2023/06/25 11:20:00;;;;;;;6.55;2.63;;;;;;;28.95;38.04;96448.22;5039041;28;20200;-67
2023/06/25 11:22:27;;;;;;;4.75;2.05;;;;;;;28.77;39.36;96450.84;5039441;28;20920;-67
2023/06/25 11:24:54;;;;;;;4.93;2.33;;;;;;;29.05;40.04;96437.28;5039863;28;21663;-68
2023/06/25 11:27:29;;;;;;;3.25;1.98;;;;;;;28.59;40.81;96446.91;5038664;28;20944;-67
2023/06/25 11:29:56;;;;;;;6.50;2.97;;;;;;;28.37;37.63;96441.13;5039874;28;20200;-66
2023/06/25 11:32:24;;;;;;;4.80;2.38;;;;;;;28.89;40.06;96443.94;5039882;28;20334;-67
2023/06/25 11:34:51;;;;;;;5.72;2.33;;;;;;;28.67;40.91;96440.88;5039413;28;20219;-67
2023/06/25 11:37:19;;;;;;;4.65;2.30;;;;;;;28.80;39.49;96442.16;5037836;28;20308;-67
2023/06/25 11:39:46;;;;;;;3.83;2.03;;;;;;;28.55;39.75;96443.16;5039439;28;20616;-67